createdAt,value
2022-09-22T00:01:18.663Z,64.72
2022-09-22T00:03:49.865Z,64.55
2022-09-22T00:06:19.430Z,64.40
2022-09-22T00:08:49.520Z,64.52
2022-09-22T00:11:19.226Z,64.19
2022-09-22T00:13:50.511Z,64.40
2022-09-22T00:16:19.617Z,64.19
2022-09-22T00:18:48.916Z,64.30
2022-09-22T00:21:18.646Z,64.27
2022-09-22T00:23:47.152Z,64.11
2022-09-22T00:26:16.338Z,64.01
2022-09-22T00:28:45.720Z,64.35
2022-09-22T00:31:15.511Z,64.15
2022-09-22T00:33:43.496Z,64.17
2022-09-22T00:36:12.726Z,63.81
2022-09-22T00:38:41.065Z,64.25
2022-09-22T00:41:10.970Z,64.25
2022-09-22T00:43:39.917Z,64.29
2022-09-22T00:46:14.732Z,64.02
2022-09-22T00:48:46.889Z,64.13
2022-09-22T00:51:17.734Z,64.26
2022-09-22T00:53:46.046Z,64.33
2022-09-22T00:56:15.400Z,64.40
2022-09-22T00:58:45.532Z,64.37
2022-09-22T01:01:15.237Z,64.21
2022-09-22T01:03:43.934Z,64.26
2022-09-22T01:06:18.313Z,64.44
2022-09-22T01:08:47.570Z,64.07
2022-09-22T01:11:16.009Z,64.25
2022-09-22T01:13:56.338Z,64.06
2022-09-22T01:16:37.811Z,64.10
2022-09-22T01:19:30.245Z,63.88
2022-09-22T01:22:04.026Z,64.04
2022-09-22T01:24:54.794Z,63.74
2022-09-22T01:27:35.485Z,63.89
2022-09-22T01:30:26.511Z,63.87
2022-09-22T01:33:08.028Z,63.70
2022-09-22T01:35:44.017Z,63.70
2022-09-22T01:38:14.275Z,63.84
2022-09-22T01:40:46.827Z,64.09
2022-09-22T01:43:18.531Z,63.91
2022-09-22T01:45:49.272Z,64.08
2022-09-22T01:48:20.515Z,64.32
2022-09-22T01:50:52.399Z,64.10
2022-09-22T01:53:24.093Z,64.01
2022-09-22T01:55:54.893Z,63.88
2022-09-22T01:58:26.489Z,64.11
2022-09-22T02:00:58.726Z,63.74
2022-09-22T02:03:30.422Z,64.19
2022-09-22T02:06:01.758Z,64.00
2022-09-22T02:08:33.652Z,64.01
2022-09-22T02:11:05.212Z,63.92
2022-09-22T02:13:32.880Z,64.05
2022-09-22T02:16:02.224Z,63.77
2022-09-22T02:18:33.394Z,63.74
2022-09-22T02:21:01.508Z,63.78
2022-09-22T02:23:29.480Z,63.86
2022-09-22T02:25:57.157Z,63.97
2022-09-22T02:28:25.817Z,64.00
2022-09-22T02:31:18.444Z,63.85
2022-09-22T02:33:45.445Z,63.87
2022-09-22T02:36:23.798Z,64.02
2022-09-22T02:38:54.985Z,64.00
2022-09-22T02:41:29.022Z,64.08
2022-09-22T02:44:01.596Z,64.01
2022-09-22T02:46:33.374Z,64.00
2022-09-22T02:49:04.733Z,64.09
2022-09-22T02:51:33.117Z,63.88
2022-09-22T02:54:01.730Z,64.06
2022-09-22T02:56:29.494Z,64.07
2022-09-22T02:58:58.571Z,63.83
2022-09-22T03:01:26.580Z,63.73
2022-09-22T03:03:54.645Z,63.90
2022-09-22T03:06:23.725Z,64.31
2022-09-22T03:08:51.381Z,64.01
2022-09-22T03:11:19.002Z,64.01
2022-09-22T03:13:46.654Z,63.87
2022-09-22T03:16:14.488Z,63.94
2022-09-22T03:18:42.205Z,64.00
2022-09-22T03:21:10.163Z,64.01
2022-09-22T03:23:39.220Z,63.92
2022-09-22T03:26:06.856Z,64.09
2022-09-22T03:28:34.489Z,64.01
2022-09-22T03:31:02.232Z,64.22
2022-09-22T03:33:29.937Z,64.23
2022-09-22T03:35:57.648Z,64.19
2022-09-22T03:38:25.442Z,64.12
2022-09-22T03:40:55.000Z,64.08
2022-09-22T03:43:22.754Z,63.79
2022-09-22T03:45:57.116Z,63.78
2022-09-22T03:48:25.008Z,63.95
2022-09-22T03:50:52.604Z,63.92
2022-09-22T03:53:20.846Z,63.80
2022-09-22T03:55:48.677Z,63.73
2022-09-22T03:58:19.923Z,63.45
2022-09-22T04:00:49.580Z,63.78
2022-09-22T04:03:17.284Z,63.41
2022-09-22T04:05:50.541Z,63.55
2022-09-22T04:08:18.269Z,63.49
2022-09-22T04:10:46.785Z,63.25
2022-09-22T04:13:14.946Z,63.42
2022-09-22T04:15:44.046Z,63.40
2022-09-22T04:18:13.768Z,63.44
2022-09-22T04:20:43.729Z,63.49
2022-09-22T04:23:11.637Z,63.26
2022-09-22T04:25:39.654Z,63.48
2022-09-22T04:28:07.908Z,63.61
2022-09-22T04:30:36.824Z,63.48
2022-09-22T04:33:06.135Z,63.42
2022-09-22T04:35:34.751Z,63.36
2022-09-22T04:38:02.389Z,63.63
2022-09-22T04:40:30.214Z,63.63
2022-09-22T04:42:58.547Z,63.41
2022-09-22T04:45:26.263Z,63.67
2022-09-22T04:47:54.504Z,63.40
2022-09-22T04:50:24.549Z,63.56
2022-09-22T04:52:53.794Z,63.67
2022-09-22T04:55:22.647Z,63.79
2022-09-22T04:57:50.503Z,63.57
2022-09-22T05:00:18.928Z,63.68
2022-09-22T05:02:46.815Z,63.48
2022-09-22T05:05:14.528Z,63.77
2022-09-22T05:07:45.797Z,63.58
2022-09-22T05:10:14.108Z,63.78
2022-09-22T05:12:42.072Z,63.80
2022-09-22T05:15:12.202Z,63.61
2022-09-22T05:17:46.223Z,63.78
2022-09-22T05:20:14.175Z,63.56
2022-09-22T05:22:42.140Z,63.73
2022-09-22T05:25:12.998Z,63.76
2022-09-22T05:27:44.753Z,63.67
2022-09-22T05:30:13.181Z,63.61
2022-09-22T05:32:43.854Z,63.43
2022-09-22T05:35:11.885Z,64.35
2022-09-22T05:37:39.721Z,64.13
2022-09-22T05:40:08.114Z,64.07
2022-09-22T05:42:40.788Z,64.50
2022-09-22T05:45:09.707Z,64.53
2022-09-22T05:47:37.552Z,64.36
2022-09-22T05:50:06.106Z,64.45
2022-09-22T05:52:33.886Z,64.61
2022-09-22T05:55:01.561Z,64.75
2022-09-22T05:57:29.374Z,64.55
2022-09-22T05:59:58.841Z,64.54
2022-09-22T06:02:27.094Z,64.52
2022-09-22T06:04:55.041Z,64.63
2022-09-22T06:07:24.084Z,64.83
2022-09-22T06:09:52.169Z,64.93
2022-09-22T06:12:20.430Z,64.80
2022-09-22T06:14:48.101Z,65.18
2022-09-22T06:17:17.065Z,65.43
2022-09-22T06:19:49.840Z,65.69
2022-09-22T06:22:18.384Z,66.12
2022-09-22T06:24:46.329Z,66.30
2022-09-22T06:27:14.080Z,66.87
2022-09-22T06:29:42.262Z,66.64
2022-09-22T06:32:10.477Z,67.15
2022-09-22T06:34:39.688Z,67.35
2022-09-22T06:37:09.621Z,67.41
2022-09-22T06:39:37.642Z,67.57
2022-09-22T06:42:05.858Z,68.07
2022-09-22T06:44:33.624Z,68.05
2022-09-22T06:47:05.226Z,68.19
2022-09-22T06:49:32.873Z,68.35
2022-09-22T06:52:02.243Z,68.69
2022-09-22T06:54:29.934Z,68.71
2022-09-22T06:56:57.833Z,68.50
2022-09-22T06:59:25.779Z,68.84
2022-09-22T07:01:53.551Z,69.00
2022-09-22T07:04:22.354Z,69.32
2022-09-22T07:06:50.957Z,69.85
2022-09-22T07:09:20.052Z,70.11
2022-09-22T07:11:49.109Z,69.99
2022-09-22T07:14:16.775Z,70.34
2022-09-22T07:16:44.444Z,70.72
2022-09-22T07:19:12.208Z,70.81
2022-09-22T07:21:40.419Z,70.56
2022-09-22T07:24:08.736Z,70.63
2022-09-22T07:26:39.305Z,70.85
2022-09-22T07:29:11.653Z,70.72
2022-09-22T07:31:40.566Z,70.86
2022-09-22T07:34:08.462Z,70.75
2022-09-22T07:36:37.987Z,71.12
2022-09-22T07:39:08.198Z,71.48
2022-09-22T07:41:41.824Z,71.31
2022-09-22T07:44:28.037Z,70.39
2022-09-22T07:46:56.033Z,70.98
2022-09-22T07:49:23.764Z,71.39
2022-09-22T07:51:54.785Z,71.87
2022-09-22T07:54:23.086Z,72.27
2022-09-22T07:56:55.345Z,70.97
2022-09-22T07:59:23.130Z,71.95
2022-09-22T08:01:51.508Z,71.50
2022-09-22T08:04:23.088Z,71.80
2022-09-22T08:06:55.613Z,71.70
2022-09-22T08:09:24.183Z,71.39
2022-09-22T08:11:53.481Z,71.68
2022-09-22T08:14:22.204Z,70.77
2022-09-22T08:16:51.891Z,70.46
2022-09-22T08:19:20.026Z,71.37
2022-09-22T08:21:49.820Z,71.19
2022-09-22T08:24:21.385Z,71.42
2022-09-22T08:26:51.210Z,71.27
2022-09-22T08:29:20.414Z,70.24
2022-09-22T08:31:49.287Z,70.98
2022-09-22T08:34:18.043Z,71.34
2022-09-22T08:36:48.499Z,71.39
2022-09-22T08:39:17.685Z,70.17
2022-09-22T08:41:56.505Z,70.31
2022-09-22T08:44:28.170Z,69.22
2022-09-22T08:47:01.119Z,71.31
2022-09-22T08:49:51.654Z,72.47
2022-09-22T08:52:25.480Z,72.01
2022-09-22T08:54:53.332Z,71.89
2022-09-22T08:57:39.112Z,71.46
2022-09-22T09:00:13.089Z,70.13
2022-09-22T09:02:42.448Z,69.26
2022-09-22T09:05:48.775Z,70.05
2022-09-22T09:08:46.460Z,68.14
2022-09-22T09:14:02.916Z,67.87
2022-09-22T09:16:45.108Z,69.17
2022-09-22T09:19:17.735Z,69.16
2022-09-22T09:21:51.257Z,67.24
2022-09-22T09:27:19.737Z,69.53
2022-09-22T09:29:57.624Z,67.92
2022-09-22T09:32:33.914Z,65.99
2022-09-22T09:35:01.915Z,67.16
2022-09-22T09:37:30.159Z,67.22
2022-09-22T09:39:58.185Z,66.50
2022-09-22T09:42:28.204Z,65.75
2022-09-22T09:45:02.461Z,65.99
2022-09-22T09:47:47.552Z,63.23
2022-09-22T09:50:16.568Z,64.53
2022-09-22T09:52:44.492Z,63.23
2022-09-22T09:55:26.747Z,63.31
2022-09-22T09:58:06.682Z,62.06
2022-09-22T10:00:34.488Z,62.85
2022-09-22T10:03:14.471Z,60.75
2022-09-22T10:05:43.469Z,62.62
2022-09-22T10:08:20.156Z,65.38
2022-09-22T10:10:48.881Z,65.31
2022-09-22T10:13:36.410Z,63.97
2022-09-22T10:16:22.318Z,61.57
2022-09-22T10:18:52.830Z,59.17
2022-09-22T10:21:22.251Z,59.88
2022-09-22T10:23:51.075Z,60.09
2022-09-22T10:26:21.920Z,58.57
2022-09-22T10:29:19.041Z,58.33
2022-09-22T10:32:05.495Z,60.60
2022-09-22T10:34:36.934Z,56.74
2022-09-22T10:37:07.181Z,57.28
2022-09-22T10:39:42.223Z,58.25
2022-09-22T10:42:20.233Z,58.60
2022-09-22T10:44:48.995Z,57.28
2022-09-22T10:47:34.024Z,57.16
2022-09-22T10:50:27.895Z,53.00
2022-09-22T10:52:57.882Z,51.73
2022-09-22T10:55:29.613Z,52.21
2022-09-22T10:58:13.217Z,53.22
2022-09-22T11:00:42.062Z,52.46
2022-09-22T11:03:47.338Z,55.87
2022-09-22T11:06:42.309Z,52.72
2022-09-22T11:09:33.617Z,52.73
2022-09-22T11:12:20.474Z,52.16
2022-09-22T11:15:11.639Z,51.35
2022-09-22T11:17:55.187Z,50.89
2022-09-22T11:20:38.167Z,50.26
2022-09-22T11:23:34.820Z,51.41
2022-09-22T11:26:23.375Z,49.09
2022-09-22T11:29:00.269Z,50.55
2022-09-22T11:31:46.625Z,48.96
2022-09-22T11:34:34.109Z,51.48
2022-09-22T11:37:25.567Z,51.39
2022-09-22T11:40:03.985Z,53.61
2022-09-22T11:42:37.001Z,51.09
2022-09-22T11:45:08.764Z,47.39
2022-09-22T11:47:48.768Z,47.50
2022-09-22T11:50:35.317Z,48.93
2022-09-22T11:53:22.547Z,49.94
2022-09-22T11:55:59.610Z,49.62
2022-09-22T11:59:45.920Z,49.78
2022-09-22T12:02:18.745Z,47.34
2022-09-22T12:04:50.697Z,48.61
2022-09-22T12:07:25.927Z,47.53
2022-09-22T12:09:56.455Z,47.51
2022-09-22T12:14:04.960Z,47.72
2022-09-22T12:16:41.695Z,47.48
2022-09-22T12:19:17.721Z,47.79
2022-09-22T12:21:49.798Z,49.42
2022-09-22T12:24:17.624Z,48.97
2022-09-22T12:26:47.456Z,46.49
2022-09-22T12:30:37.956Z,46.38
2022-09-22T12:33:05.709Z,48.73
2022-09-22T12:35:34.008Z,47.25
2022-09-22T12:38:02.480Z,47.42
2022-09-22T12:40:32.104Z,48.07
2022-09-22T12:43:00.922Z,47.50
2022-09-22T12:45:32.335Z,48.04
2022-09-22T12:48:04.782Z,48.07
2022-09-22T12:50:38.823Z,47.60
2022-09-22T12:53:11.554Z,46.48
2022-09-22T12:55:39.911Z,47.50
2022-09-22T12:58:42.829Z,46.94
2022-09-22T13:01:35.733Z,49.74
2022-09-22T13:04:14.878Z,47.51
2022-09-22T13:07:00.609Z,48.08
2022-09-22T13:09:31.708Z,47.49
2022-09-22T13:12:27.010Z,47.64
2022-09-22T13:15:02.510Z,45.51
2022-09-22T13:17:43.757Z,46.66
2022-09-22T13:20:21.740Z,47.88
2022-09-22T13:22:51.081Z,48.74
2022-09-22T13:25:27.223Z,48.08
2022-09-22T13:28:06.636Z,47.31
2022-09-22T13:30:34.343Z,47.22
2022-09-22T13:33:02.161Z,46.05
2022-09-22T13:35:32.979Z,45.70
2022-09-22T13:38:01.185Z,46.54
2022-09-22T13:40:31.589Z,46.21
2022-09-22T13:43:02.037Z,46.42
2022-09-22T13:45:30.430Z,48.14
2022-09-22T13:48:03.724Z,48.67
2022-09-22T13:50:41.008Z,48.13
2022-09-22T13:53:08.952Z,47.81
2022-09-22T13:55:37.506Z,49.59
2022-09-22T13:58:06.758Z,50.74
2022-09-22T14:01:08.776Z,50.70
2022-09-22T14:03:36.957Z,52.26
2022-09-22T14:06:09.020Z,48.23
2022-09-22T14:08:36.930Z,50.10
2022-09-22T14:11:06.147Z,49.89
2022-09-22T14:13:37.784Z,45.66
2022-09-22T14:16:27.664Z,44.80
2022-09-22T14:18:59.810Z,45.46
2022-09-22T14:21:28.847Z,45.01
2022-09-22T14:23:57.555Z,45.14
2022-09-22T14:26:33.351Z,44.55
2022-09-22T14:29:15.143Z,44.25
2022-09-22T14:31:46.572Z,44.47
2022-09-22T14:34:19.571Z,47.10
2022-09-22T14:36:49.612Z,45.98
2022-09-22T14:39:20.133Z,44.43
2022-09-22T14:41:52.365Z,43.54
2022-09-22T14:44:26.652Z,45.54
2022-09-22T14:46:56.634Z,43.91
2022-09-22T14:49:37.627Z,44.14
2022-09-22T14:52:08.103Z,44.51
2022-09-22T14:54:36.081Z,44.22
2022-09-22T14:57:07.608Z,46.24
2022-09-22T14:59:55.704Z,44.45
2022-09-22T15:02:33.083Z,47.36
2022-09-22T15:05:03.384Z,45.37
2022-09-22T15:07:34.207Z,46.37
2022-09-22T15:10:03.523Z,44.95
2022-09-22T15:12:36.077Z,45.39
2022-09-22T15:15:03.861Z,45.42
2022-09-22T15:17:56.841Z,46.01
2022-09-22T15:20:27.129Z,45.57
2022-09-22T15:22:56.765Z,46.45
2022-09-22T15:25:24.806Z,44.79
2022-09-22T15:27:53.433Z,45.10
2022-09-22T15:30:22.059Z,45.35
2022-09-22T15:32:50.232Z,45.38
2022-09-22T15:35:18.892Z,45.62
2022-09-22T15:37:47.521Z,45.21
2022-09-22T15:40:18.600Z,45.01
2022-09-22T15:43:08.605Z,44.62
2022-09-22T15:45:34.766Z,44.76
2022-09-22T15:48:02.767Z,45.24
2022-09-22T15:50:32.362Z,45.25
2022-09-22T15:53:00.015Z,45.48
2022-09-22T15:55:29.183Z,45.72
2022-09-22T15:58:09.029Z,45.71
2022-09-22T16:00:37.339Z,47.41
2022-09-22T16:03:09.681Z,46.63
2022-09-22T16:05:38.091Z,46.72
2022-09-22T16:08:05.756Z,46.42
2022-09-22T16:10:36.258Z,46.65
2022-09-22T16:13:04.300Z,47.87
2022-09-22T16:15:33.029Z,47.87
2022-09-22T16:18:00.734Z,48.35
2022-09-22T16:20:28.693Z,48.52
2022-09-22T16:22:56.268Z,49.39
2022-09-22T16:25:23.985Z,49.23
2022-09-22T16:27:53.174Z,48.57
2022-09-22T16:30:25.219Z,50.44
2022-09-22T16:32:53.995Z,49.93
2022-09-22T16:35:24.218Z,50.83
2022-09-22T16:37:55.813Z,51.16
2022-09-22T16:40:24.915Z,51.04
2022-09-22T16:42:53.969Z,51.62
2022-09-22T16:45:41.664Z,51.43
2022-09-22T16:48:09.294Z,52.05
2022-09-22T16:50:43.025Z,51.94
2022-09-22T16:53:11.141Z,52.85
2022-09-22T16:55:38.792Z,54.15
2022-09-22T16:58:13.102Z,54.83
2022-09-22T17:00:40.786Z,54.35
2022-09-22T17:03:08.448Z,54.94
2022-09-22T17:05:38.065Z,55.14
2022-09-22T17:08:06.898Z,55.92
2022-09-22T17:10:35.535Z,56.11
2022-09-22T17:13:04.802Z,56.50
2022-09-22T17:15:36.112Z,56.15
2022-09-22T17:18:04.387Z,56.40
2022-09-22T17:20:32.137Z,57.05
2022-09-22T17:22:59.908Z,56.80
2022-09-22T17:25:29.440Z,57.45
2022-09-22T17:27:57.769Z,57.74
2022-09-22T17:30:25.889Z,58.05
2022-09-22T17:32:55.068Z,58.31
2022-09-22T17:35:22.763Z,58.41
2022-09-22T17:37:52.121Z,58.51
2022-09-22T17:40:19.969Z,58.77
2022-09-22T17:42:48.318Z,58.96
2022-09-22T17:45:16.003Z,59.15
2022-09-22T17:48:01.378Z,59.25
2022-09-22T17:50:48.139Z,59.45
2022-09-22T17:53:33.185Z,59.65
2022-09-22T17:56:05.091Z,59.44
2022-09-22T17:58:32.798Z,59.61
2022-09-22T18:01:00.648Z,59.85
2022-09-22T18:03:29.059Z,59.63
2022-09-22T18:05:58.329Z,60.14
2022-09-22T18:08:26.166Z,59.89
2022-09-22T18:10:54.411Z,60.39
2022-09-22T18:13:22.136Z,60.20
2022-09-22T18:15:50.957Z,60.82
2022-09-22T18:18:18.649Z,60.79
2022-09-22T18:20:46.320Z,60.52
2022-09-22T18:23:15.387Z,60.34
2022-09-22T18:25:42.963Z,60.98
2022-09-22T18:28:11.085Z,60.71
2022-09-22T18:30:40.822Z,60.97
2022-09-22T18:33:08.480Z,61.07
2022-09-22T18:35:36.948Z,60.87
2022-09-22T18:38:04.647Z,60.88
2022-09-22T18:40:33.729Z,61.34
2022-09-22T18:43:01.399Z,61.47
2022-09-22T18:45:29.150Z,61.47
2022-09-22T18:47:59.115Z,61.44
2022-09-22T18:50:28.052Z,61.66
2022-09-22T18:52:56.699Z,61.79
2022-09-22T18:55:24.310Z,61.49
2022-09-22T18:57:54.048Z,61.43
2022-09-22T19:00:22.178Z,61.97
2022-09-22T19:02:50.268Z,62.27
2022-09-22T19:05:18.100Z,62.42
2022-09-22T19:07:47.757Z,62.55
2022-09-22T19:10:18.791Z,62.76
2022-09-22T19:12:46.457Z,62.90
2022-09-22T19:15:18.648Z,62.87
2022-09-22T19:17:49.317Z,63.07
2022-09-22T19:20:18.603Z,63.06
2022-09-22T19:22:46.847Z,63.04
2022-09-22T19:25:14.918Z,63.23
2022-09-22T19:27:42.923Z,63.34
2022-09-22T19:30:11.915Z,63.63
2022-09-22T19:32:41.358Z,62.94
2022-09-22T19:35:10.512Z,63.28
2022-09-22T19:37:38.331Z,63.27
2022-09-22T19:40:06.873Z,63.46
2022-09-22T19:42:40.021Z,63.69
2022-09-22T19:45:08.873Z,63.62
2022-09-22T19:47:36.768Z,63.71
2022-09-22T19:50:07.806Z,63.88
2022-09-22T19:52:35.982Z,63.86
2022-09-22T19:55:03.629Z,63.94
2022-09-22T19:57:31.867Z,63.95
2022-09-22T19:59:59.655Z,63.99
2022-09-22T20:02:27.443Z,63.88
2022-09-22T20:04:55.836Z,63.93
2022-09-22T20:07:27.764Z,64.11
2022-09-22T20:09:56.510Z,63.39
2022-09-22T20:12:24.315Z,63.68
2022-09-22T20:14:52.654Z,63.33
2022-09-22T20:17:20.392Z,63.78
2022-09-22T20:19:48.034Z,64.02
2022-09-22T20:22:21.198Z,64.13
2022-09-22T20:24:54.035Z,64.32
2022-09-22T20:27:25.939Z,64.31
2022-09-22T20:29:57.042Z,63.67
2022-09-22T20:32:25.566Z,64.05
2022-09-22T20:34:54.036Z,63.80
2022-09-22T20:37:21.733Z,63.79
2022-09-22T20:39:51.106Z,64.39
2022-09-22T20:42:18.777Z,64.21
2022-09-22T20:44:46.847Z,64.18
2022-09-22T20:47:15.925Z,64.14
2022-09-22T20:49:45.924Z,64.20
2022-09-22T20:52:19.886Z,64.32
2022-09-22T20:54:47.787Z,64.25
2022-09-22T20:57:17.012Z,64.24
2022-09-22T20:59:45.764Z,64.15
2022-09-22T21:02:13.954Z,64.42
2022-09-22T21:04:42.151Z,64.51
2022-09-22T21:07:11.214Z,64.46
2022-09-22T21:09:56.446Z,64.40
2022-09-22T21:12:30.716Z,64.28
2022-09-22T21:14:59.041Z,64.32
2022-09-22T21:17:27.694Z,63.83
2022-09-22T21:19:56.278Z,64.09
2022-09-22T21:22:24.464Z,64.23
2022-09-22T21:24:52.531Z,64.49
2022-09-22T21:27:20.479Z,64.18
2022-09-22T21:29:49.658Z,64.34
2022-09-22T21:32:17.488Z,64.49
2022-09-22T21:34:45.789Z,64.37
2022-09-22T21:37:14.478Z,64.55
2022-09-22T21:39:42.133Z,63.96
2022-09-22T21:42:09.772Z,64.24
2022-09-22T21:44:37.465Z,64.66
2022-09-22T21:47:06.948Z,64.54
2022-09-22T21:49:34.674Z,64.47
2022-09-22T21:52:02.697Z,64.90
2022-09-22T21:54:31.164Z,64.79
2022-09-22T21:56:58.831Z,64.94
2022-09-22T21:59:26.569Z,64.80
2022-09-22T22:01:54.263Z,64.83
2022-09-22T22:04:23.461Z,65.09
2022-09-22T22:06:51.622Z,64.92
2022-09-22T22:09:20.881Z,64.83
2022-09-22T22:11:49.740Z,64.96
2022-09-22T22:14:19.587Z,64.76
2022-09-22T22:16:49.423Z,64.87
2022-09-22T22:19:19.970Z,65.15
2022-09-22T22:21:50.245Z,65.11
2022-09-22T22:24:31.675Z,65.08
2022-09-22T22:27:01.414Z,65.05
2022-09-22T22:29:31.780Z,65.10
2022-09-22T22:32:00.712Z,65.17
2022-09-22T22:34:28.486Z,65.44
2022-09-22T22:36:59.058Z,65.53
2022-09-22T22:39:27.014Z,65.37
2022-09-22T22:41:55.604Z,65.48
2022-09-22T22:44:23.436Z,65.51
2022-09-22T22:46:51.106Z,65.66
2022-09-22T22:49:19.073Z,65.46
2022-09-22T22:51:46.796Z,65.64
2022-09-22T22:54:15.865Z,65.59
2022-09-22T22:56:46.723Z,65.61
2022-09-22T22:59:16.874Z,65.58
2022-09-22T23:01:44.687Z,65.36
2022-09-22T23:04:12.703Z,65.54
2022-09-22T23:06:43.923Z,65.67
2022-09-22T23:09:13.971Z,65.52
2022-09-22T23:11:44.000Z,65.41
2022-09-22T23:14:13.216Z,65.38
2022-09-22T23:16:43.263Z,65.21
2022-09-22T23:19:13.030Z,65.39
2022-09-22T23:21:40.770Z,65.70
2022-09-22T23:24:09.152Z,65.61
2022-09-22T23:26:37.546Z,65.63
2022-09-22T23:29:06.959Z,65.22
2022-09-22T23:31:34.785Z,65.21
2022-09-22T23:34:02.568Z,65.23
2022-09-22T23:36:30.557Z,64.78
2022-09-22T23:39:01.903Z,64.88
2022-09-22T23:41:29.784Z,65.08
2022-09-22T23:43:57.410Z,65.22
2022-09-22T23:46:26.713Z,65.18
2022-09-22T23:48:55.369Z,65.36
2022-09-22T23:51:23.219Z,65.52
2022-09-22T23:53:51.190Z,65.56
2022-09-22T23:56:19.593Z,65.04
2022-09-22T23:58:47.622Z,65.11
